Time;durP1;ratioP1;P1;durP2;ratioP2;P2;SDS_P1;SDS_P2;PMS_P1;PMS_P2;Temp;Humidity;BMP_temperature;BMP_pressure;BME280_temperature;BME280_humidity;BME280_pressure;Samples;Min_cycle;Max_cycle;Signal;HPM_P1;HPM_P2
2021/06/18 00:02:08;;;;;;;6.45;5.85;;;;;;;18.42;64.52;98707.28;5040383;28;20033;-89
2021/06/18 00:04:33;;;;;;;8.48;6.45;;;;;;;18.42;64.61;98708.13;5057260;28;20049;-88
2021/06/18 00:06:59;;;;;;;7.70;6.20;;;;;;;18.43;64.46;98706.38;5042938;28;20060;-89
2021/06/18 00:09:24;;;;;;;6.25;5.65;;;;;;;18.42;63.78;98705.53;5055349;28;20388;-89
2021/06/18 00:11:49;;;;;;;11.00;6.63;;;;;;;18.48;63.54;98701.81;5041001;28;20626;-87
2021/06/18 00:14:15;;;;;;;9.25;6.38;;;;;;;18.45;63.59;98705.41;5038209;28;20037;-89
2021/06/18 00:16:40;;;;;;;8.48;5.95;;;;;;;18.41;63.96;98703.88;5043455;28;20379;-89
2021/06/18 00:19:06;;;;;;;6.35;5.72;;;;;;;18.43;63.49;98696.84;5041157;28;20066;-88
2021/06/18 00:21:31;;;;;;;6.43;5.80;;;;;;;18.42;63.73;98694.31;5057134;28;20060;-88
2021/06/18 00:23:57;;;;;;;6.82;5.43;;;;;;;18.37;64.10;98693.72;5054549;28;20401;-89
2021/06/18 00:26:23;;;;;;;7.88;5.90;;;;;;;18.37;64.19;98698.91;5042250;28;20075;-88
2021/06/18 00:28:48;;;;;;;11.95;8.13;;;;;;;18.32;64.98;98696.53;5046480;28;20032;-89
2021/06/18 00:31:14;;;;;;;17.13;15.15;;;;;;;18.20;65.56;98687.59;5057392;28;20043;-90
2021/06/18 00:33:39;;;;;;;39.15;36.38;;;;;;;18.19;65.44;98693.72;5048729;28;20067;-90
2021/06/18 00:36:05;;;;;;;293.35;279.70;;;;;;;18.18;65.09;98688.59;5050761;28;20033;-89
2021/06/18 00:38:31;;;;;;;549.83;520.65;;;;;;;18.13;65.80;98691.41;5049063;28;20028;-90
2021/06/18 00:40:56;;;;;;;598.50;566.10;;;;;;;18.03;66.08;98682.41;5047494;28;20118;-90
2021/06/18 00:43:22;;;;;;;771.47;721.08;;;;;;;18.03;66.18;98687.59;5065689;28;20029;-89
2021/06/18 00:45:48;;;;;;;750.30;690.40;;;;;;;17.98;66.37;98686.13;5057402;28;20078;-90
2021/06/18 00:48:13;;;;;;;761.75;701.20;;;;;;;17.90;66.45;98683.06;5057188;28;20040;-90
2021/06/18 00:50:42;;;;;;;736.65;677.10;;;;;;;17.84;66.60;98681.59;5059174;28;20024;-90
2021/06/18 00:53:07;;;;;;;733.67;674.28;;;;;;;17.85;66.66;98698.84;5050101;28;20316;-90
2021/06/18 00:55:33;;;;;;;733.47;674.15;;;;;;;17.83;66.31;98692.88;5059085;28;20047;-90
2021/06/18 00:58:00;;;;;;;733.80;674.65;;;;;;;17.79;66.93;98702.53;5064325;28;20029;-90
2021/06/18 01:00:26;;;;;;;5.70;5.20;;;;;;;17.70;67.50;98699.53;5062825;28;20024;-90
2021/06/18 01:02:51;;;;;;;481.88;444.20;;;;;;;17.64;67.79;98695.50;5049863;28;20033;-90
2021/06/18 01:05:19;;;;;;;10.02;6.18;;;;;;;17.65;67.93;98688.56;5048564;28;20028;-90
2021/06/18 01:07:57;;;;;;;7.20;5.82;;;;;;;17.61;68.19;98692.22;5054568;28;20387;-90
2021/06/18 01:10:58;;;;;;;7.07;5.82;;;;;;;17.61;67.98;98692.22;5069588;28;20036;-90
2021/06/18 01:13:37;;;;;;;6.55;5.93;;;;;;;17.54;68.23;98688.16;4977478;28;20059;-88
2021/06/18 01:16:05;;;;;;;6.93;6.22;;;;;;;17.56;68.22;98687.19;4967385;28;20031;-89
2021/06/18 01:19:19;;;;;;;8.57;6.20;;;;;;;17.60;67.66;98693.13;4968495;28;20043;-89
2021/06/18 01:21:54;;;;;;;8.57;5.97;;;;;;;17.50;68.77;98695.25;4925410;29;20095;-89
2021/06/18 01:24:44;;;;;;;6.75;6.05;;;;;;;17.41;68.69;98694.81;4912347;29;20035;-89
2021/06/18 01:27:31;;;;;;;712.33;652.92;;;;;;;17.38;68.03;98692.38;4934198;29;20040;-89
2021/06/18 01:30:05;;;;;;;724.53;664.67;;;;;;;17.36;67.64;98682.91;4914180;29;20065;-89
2021/06/18 01:32:59;;;;;;;719.13;659.63;;;;;;;17.35;67.67;98686.41;4927088;29;20055;-90
2021/06/18 01:35:31;;;;;;;724.13;664.05;;;;;;;17.29;67.73;98686.69;4924843;29;20348;-90
2021/06/18 01:37:58;;;;;;;723.80;663.60;;;;;;;17.27;68.65;98691.09;4932257;29;20055;-89
2021/06/18 01:40:26;;;;;;;739.97;679.28;;;;;;;17.20;68.15;98694.88;4931442;29;20035;-89
2021/06/18 01:42:52;;;;;;;735.13;674.10;;;;;;;17.13;68.13;98683.13;4919914;29;20043;-89
2021/06/18 01:45:21;;;;;;;733.53;671.83;;;;;;;17.05;69.03;98684.38;4926683;29;20040;-90
2021/06/18 01:47:47;;;;;;;723.75;661.83;;;;;;;17.04;68.54;98687.84;4924923;29;20032;-89
2021/06/18 01:50:19;;;;;;;720.88;660.72;;;;;;;17.03;68.61;98691.34;4960315;28;20126;-89
2021/06/18 01:52:50;;;;;;;724.25;663.03;;;;;;;17.01;68.46;98683.66;4978657;28;20042;-90
2021/06/18 01:55:18;;;;;;;726.88;666.17;;;;;;;16.99;69.40;98697.56;4975063;28;20113;-89
2021/06/18 01:57:46;;;;;;;722.37;662.17;;;;;;;16.94;69.70;98691.75;4993047;28;20045;-89
2021/06/18 02:00:12;;;;;;;739.92;678.35;;;;;;;16.91;69.61;98697.91;5038703;28;20033;-89
2021/06/18 02:02:38;;;;;;;721.70;661.30;;;;;;;16.85;69.10;98698.16;5039051;28;20043;-89
2021/06/18 02:05:06;;;;;;;708.50;648.73;;;;;;;16.87;69.56;98698.97;5054940;28;20025;-89
2021/06/18 02:07:34;;;;;;;709.70;650.23;;;;;;;16.93;68.77;98698.66;5057054;28;20033;-89
2021/06/18 02:10:01;;;;;;;707.27;647.83;;;;;;;16.93;69.29;98703.03;5025987;28;20147;-89
2021/06/18 02:12:27;;;;;;;686.10;627.27;;;;;;;16.87;69.58;98699.81;5051424;28;20032;-89
2021/06/18 02:14:55;;;;;;;665.53;607.17;;;;;;;16.94;69.27;98705.53;5038981;28;20094;-89
2021/06/18 02:17:21;;;;;;;673.33;614.87;;;;;;;16.82;69.47;98704.34;5038378;28;20032;-89
2021/06/18 02:19:48;;;;;;;685.97;627.17;;;;;;;16.83;69.63;98712.94;5038362;28;20017;-90
2021/06/18 02:22:14;;;;;;;711.00;650.97;;;;;;;16.79;69.96;98706.22;5054318;28;20039;-89
2021/06/18 02:24:41;;;;;;;700.07;640.90;;;;;;;16.79;70.18;98708.81;5034716;28;20518;-89
2021/06/18 02:27:07;;;;;;;698.20;638.93;;;;;;;16.79;69.87;98711.41;5045866;28;20098;-89
2021/06/18 02:29:33;;;;;;;675.70;617.10;;;;;;;16.77;70.10;98711.44;5038370;28;20032;-88
2021/06/18 02:32:02;;;;;;;672.80;614.73;;;;;;;16.76;70.14;98707.16;5053600;28;20055;-89
2021/06/18 02:34:27;;;;;;;657.23;599.77;;;;;;;16.74;70.05;98708.16;5036632;28;20025;-88
2021/06/18 02:36:53;;;;;;;643.43;586.17;;;;;;;16.71;70.48;98705.72;5036566;28;20369;-89
2021/06/18 02:39:19;;;;;;;713.97;654.47;;;;;;;16.70;70.70;98697.09;5027509;28;20090;-88
2021/06/18 02:41:44;;;;;;;694.70;635.73;;;;;;;16.70;70.66;98709.19;5054125;28;20099;-89
2021/06/18 02:44:10;;;;;;;618.60;562.37;;;;;;;16.71;70.88;98709.13;5053390;28;20120;-89
2021/06/18 02:46:40;;;;;;;618.43;562.07;;;;;;;16.68;70.86;98709.25;5051236;28;20056;-90
2021/06/18 02:49:11;;;;;;;619.83;563.40;;;;;;;16.70;70.56;98704.00;5048289;28;20033;-89
2021/06/18 02:51:45;;;;;;;590.23;535.20;;;;;;;16.68;71.01;98705.81;5036828;28;20021;-89
2021/06/18 02:54:20;;;;;;;620.97;564.53;;;;;;;16.66;71.22;98705.06;5032368;28;20029;-89
2021/06/18 02:56:51;;;;;;;617.58;561.22;;;;;;;16.71;71.04;98721.25;5052157;28;20036;-89
2021/06/18 02:59:31;;;;;;;576.73;522.07;;;;;;;16.75;70.95;98718.47;5026077;28;20087;-89
2021/06/18 03:02:00;;;;;;;621.67;565.63;;;;;;;16.74;70.93;98719.34;5052847;28;20056;-89
2021/06/18 03:04:27;;;;;;;603.17;547.43;;;;;;;16.75;70.80;98713.28;5053687;28;20139;-90
2021/06/18 03:07:00;;;;;;;597.93;542.13;;;;;;;16.80;70.92;98718.25;5045070;28;20037;-89
2021/06/18 03:09:42;;;;;;;573.10;518.97;;;;;;;16.81;70.72;98714.75;5038489;28;20033;-89
2021/06/18 03:12:10;;;;;;;588.70;532.80;;;;;;;16.76;70.86;98709.75;5049593;28;20029;-89
2021/06/18 03:14:36;;;;;;;589.07;534.40;;;;;;;16.76;71.40;98706.34;5036113;28;20085;-89
2021/06/18 03:17:05;;;;;;;576.37;521.73;;;;;;;16.78;71.21;98709.72;5049973;28;20091;-89
2021/06/18 03:19:33;;;;;;;569.87;516.03;;;;;;;16.76;71.52;98709.75;5054065;28;20028;-89
2021/06/18 03:22:02;;;;;;;572.27;518.40;;;;;;;16.83;71.67;98715.53;5054322;28;20047;-89
2021/06/18 03:24:32;;;;;;;574.87;520.47;;;;;;;16.84;71.60;98714.63;5050938;28;20340;-89
2021/06/18 03:26:59;;;;;;;568.20;514.30;;;;;;;16.78;71.96;98704.53;5051959;28;20354;-89
2021/06/18 03:29:30;;;;;;;565.50;511.57;;;;;;;16.81;71.98;98710.41;5037378;28;20028;-89
2021/06/18 03:31:58;;;;;;;564.03;510.53;;;;;;;16.85;72.11;98708.53;5058204;28;20452;-89
2021/06/18 03:34:26;;;;;;;545.43;492.70;;;;;;;16.97;71.76;98710.63;5041614;28;20025;-89
2021/06/18 03:36:52;;;;;;;552.17;499.33;;;;;;;17.05;71.39;98710.28;5059941;28;20338;-89
2021/06/18 03:39:20;;;;;;;571.20;517.53;;;;;;;17.13;71.25;98706.44;5046225;28;20070;-90
2021/06/18 03:41:46;;;;;;;548.97;496.17;;;;;;;17.18;71.17;98714.00;5057135;28;20025;-89
2021/06/18 03:44:12;;;;;;;545.57;493.07;;;;;;;17.24;71.39;98714.56;5060835;28;20401;-88
2021/06/18 03:46:39;;;;;;;547.97;495.47;;;;;;;17.42;70.78;98722.44;5055887;28;20053;-89
2021/06/18 03:49:05;;;;;;;540.33;488.07;;;;;;;17.51;70.52;98711.66;5058656;28;20036;-89
2021/06/18 03:51:31;;;;;;;565.40;512.17;;;;;;;17.56;70.28;98714.88;5045443;28;20124;-89
2021/06/18 03:53:57;;;;;;;563.73;510.90;;;;;;;17.72;69.83;98716.72;5044489;28;20429;-89
2021/06/18 03:56:23;;;;;;;570.43;517.50;;;;;;;17.87;69.55;98720.34;5034077;28;20393;-89
2021/06/18 03:58:49;;;;;;;606.27;552.00;;;;;;;17.98;68.96;98704.28;5044190;28;20131;-89
2021/06/18 04:01:16;;;;;;;578.37;525.27;;;;;;;18.21;67.97;98707.44;5060136;28;20361;-89
2021/06/18 04:03:49;;;;;;;586.70;533.33;;;;;;;18.42;67.77;98712.47;5044281;28;20283;-89
2021/06/18 04:06:15;;;;;;;582.40;529.33;;;;;;;18.58;67.16;98713.47;5057300;28;20719;-89
2021/06/18 04:08:41;;;;;;;613.77;560.07;;;;;;;18.71;66.60;98715.34;5060555;28;20523;-89
2021/06/18 04:11:08;;;;;;;605.77;552.47;;;;;;;18.85;66.67;98717.25;5044085;28;20286;-88
2021/06/18 04:13:36;;;;;;;633.17;579.67;;;;;;;18.94;65.78;98713.34;5042386;28;20032;-88
2021/06/18 04:16:01;;;;;;;637.03;582.63;;;;;;;19.11;64.90;98719.34;5040675;28;20299;-89
2021/06/18 04:18:32;;;;;;;613.07;560.13;;;;;;;19.34;63.90;98720.75;5034061;28;20421;-89
2021/06/18 04:21:02;;;;;;;616.63;563.33;;;;;;;19.50;63.70;98713.84;5046634;28;20115;-89
2021/06/18 04:23:28;;;;;;;644.73;590.73;;;;;;;19.68;63.33;98713.78;5060375;28;20775;-90
2021/06/18 04:25:59;;;;;;;633.53;580.00;;;;;;;19.91;63.03;98711.56;5062518;28;20267;-89
2021/06/18 04:28:26;;;;;;;633.63;579.17;;;;;;;20.07;63.10;98706.38;5058292;28;20037;-87
2021/06/18 04:30:51;;;;;;;651.37;597.10;;;;;;;20.27;62.63;98713.03;5044894;28;20120;-88
2021/06/18 04:33:17;;;;;;;11.95;8.57;;;;;;;20.44;62.23;98710.34;5059066;28;20158;-88
2021/06/18 04:35:42;;;;;;;620.13;565.10;;;;;;;20.61;61.88;98710.22;5057699;28;20410;-91
2021/06/18 04:38:08;;;;;;;699.37;642.17;;;;;;;20.83;60.92;98712.41;5041152;28;20066;-90
2021/06/18 04:40:33;;;;;;;696.20;639.97;;;;;;;21.06;60.19;98718.81;5061206;28;20063;-90
2021/06/18 04:42:59;;;;;;;701.20;645.17;;;;;;;21.23;59.70;98726.50;5053174;28;20056;-91
2021/06/18 04:45:26;;;;;;;724.07;667.50;;;;;;;21.48;59.41;98728.44;5057168;28;20295;-89
2021/06/18 04:47:52;;;;;;;729.20;672.13;;;;;;;21.69;58.76;98722.75;5053955;28;20047;-88
2021/06/18 04:50:17;;;;;;;753.23;695.33;;;;;;;21.89;58.26;98711.06;5055823;28;20024;-88
2021/06/18 04:52:44;;;;;;;763.47;705.87;;;;;;;22.11;57.82;98708.75;5057905;28;20025;-88
2021/06/18 04:55:15;;;;;;;789.37;731.00;;;;;;;22.31;57.54;98717.94;5042830;28;20029;-87
2021/06/18 04:57:41;;;;;;;802.33;743.00;;;;;;;22.49;56.95;98719.31;5056333;28;20394;-90
2021/06/18 05:00:07;;;;;;;790.23;731.73;;;;;;;22.65;56.04;98714.78;5037357;28;20040;-90
2021/06/18 05:02:32;;;;;;;780.33;722.97;;;;;;;22.67;55.70;98722.50;5055115;28;20032;-90
2021/06/18 05:04:58;;;;;;;779.93;722.37;;;;;;;22.92;55.28;98719.09;5040005;28;20032;-90
2021/06/18 05:07:23;;;;;;;788.00;730.93;;;;;;;22.89;54.95;98725.38;5053679;28;20039;-91
2021/06/18 05:09:49;;;;;;;799.77;742.10;;;;;;;23.07;54.00;98733.75;5057229;28;20543;-89
2021/06/18 05:12:14;;;;;;;785.63;728.37;;;;;;;23.05;54.41;98735.63;5042490;28;20039;-89
2021/06/18 05:14:40;;;;;;;774.30;717.47;;;;;;;23.25;54.20;98734.28;5043569;28;20064;-88
2021/06/18 05:17:05;;;;;;;793.43;736.07;;;;;;;23.38;53.82;98727.28;5041059;28;20029;-90
2021/06/18 05:19:30;;;;;;;812.20;754.57;;;;;;;23.52;53.09;98730.63;5054563;28;20021;-89
2021/06/18 05:21:56;;;;;;;801.47;744.23;;;;;;;23.61;52.79;98727.34;5055411;28;20034;-90
2021/06/18 05:24:21;;;;;;;805.20;747.17;;;;;;;23.76;52.50;98732.47;5055664;28;20057;-89
2021/06/18 05:26:47;;;;;;;810.30;752.37;;;;;;;23.84;52.31;98738.00;5039836;28;20043;-89
2021/06/18 05:29:12;;;;;;;805.27;748.13;;;;;;;23.48;52.68;98739.63;5057154;28;20035;-89
2021/06/18 05:31:37;;;;;;;831.03;772.63;;;;;;;23.51;53.59;98739.41;5057312;28;20032;-88
2021/06/18 05:34:03;;;;;;;841.33;782.97;;;;;;;23.55;53.76;98740.88;5044608;28;20028;-89
2021/06/18 05:36:28;;;;;;;839.03;780.43;;;;;;;23.36;53.96;98734.38;5057253;28;20025;-89
2021/06/18 05:38:54;;;;;;;828.77;770.43;;;;;;;23.38;54.52;98725.47;5041445;28;20039;-89
2021/06/18 05:41:19;;;;;;;854.73;793.83;;;;;;;23.60;53.01;98722.22;5054957;28;20037;-88
2021/06/18 05:43:45;;;;;;;833.73;775.23;;;;;;;23.51;54.06;98736.78;5043340;28;20035;-89
2021/06/18 05:46:10;;;;;;;845.57;785.97;;;;;;;23.75;53.06;98738.63;5041559;28;20037;-89
2021/06/18 05:48:35;;;;;;;836.13;777.80;;;;;;;23.58;54.28;98743.28;5057373;28;20028;-89
2021/06/18 05:51:01;;;;;;;837.37;777.80;;;;;;;23.77;53.59;98734.94;5038257;28;20032;-88
2021/06/18 05:53:26;;;;;;;847.43;788.23;;;;;;;23.84;53.44;98725.72;5056792;28;20029;-89
2021/06/18 05:55:52;;;;;;;860.70;800.80;;;;;;;24.11;52.97;98728.97;5040336;28;20041;-90
2021/06/18 05:58:18;;;;;;;864.57;804.73;;;;;;;24.25;52.10;98728.00;5053633;28;20075;-90
2021/06/18 06:00:44;;;;;;;917.73;854.63;;;;;;;24.44;51.89;98730.13;5054666;28;20029;-89
2021/06/18 06:03:10;;;;;;;915.97;853.50;;;;;;;24.54;50.90;98731.94;5040918;28;20255;-89
2021/06/18 06:05:36;;;;;;;922.63;859.80;;;;;;;24.69;50.21;98729.97;5061962;28;20127;-90
2021/06/18 06:08:02;;;;;;;928.30;864.77;;;;;;;24.80;49.85;98727.38;5038078;28;20036;-90
2021/06/18 06:10:27;;;;;;;931.07;867.57;;;;;;;24.78;49.85;98724.00;5040259;28;20071;-89
2021/06/18 06:12:53;;;;;;;938.13;873.67;;;;;;;24.80;49.83;98719.50;5040329;28;20029;-89
2021/06/18 06:15:18;;;;;;;932.67;869.20;;;;;;;24.85;49.57;98713.91;5051748;28;20357;-90
2021/06/18 06:17:44;;;;;;;936.73;872.67;;;;;;;25.07;48.98;98734.97;5051125;28;20048;-90
2021/06/18 06:20:11;;;;;;;940.53;876.83;;;;;;;25.08;48.86;98728.75;5055157;28;20033;-89
2021/06/18 06:22:36;;;;;;;942.93;879.17;;;;;;;25.13;48.88;98724.00;5050980;28;20223;-89
2021/06/18 06:25:04;;;;;;;941.93;877.83;;;;;;;25.25;49.45;98727.47;5054022;28;20120;-89
2021/06/18 06:27:30;;;;;;;947.50;883.50;;;;;;;25.18;49.46;98734.13;5052548;28;20024;-90
2021/06/18 06:29:55;;;;;;;949.97;885.73;;;;;;;25.19;49.37;98734.03;5049531;28;20040;-89
2021/06/18 06:32:21;;;;;;;947.70;883.37;;;;;;;25.11;49.38;98738.19;5052169;28;20293;-90
2021/06/18 06:34:46;;;;;;;966.03;901.17;;;;;;;25.37;49.68;98734.41;5053270;28;20029;-90
2021/06/18 06:37:12;;;;;;;955.37;890.67;;;;;;;25.34;49.08;98721.50;5036906;28;20117;-89
2021/06/18 06:39:37;;;;;;;962.03;897.33;;;;;;;25.57;48.68;98725.81;5052514;28;20588;-88
2021/06/18 06:42:04;;;;;;;968.77;903.97;;;;;;;25.59;49.39;98723.91;5052836;28;20618;-90
2021/06/18 06:44:30;;;;;;;960.60;895.63;;;;;;;25.70;48.96;98723.91;5037009;28;20270;-90
2021/06/18 06:46:55;;;;;;;961.93;897.40;;;;;;;25.87;48.95;98723.41;5046452;28;20068;-90
2021/06/18 06:49:21;;;;;;;974.07;908.60;;;;;;;26.04;48.87;98722.03;5034966;28;20110;-90
2021/06/18 06:51:46;;;;;;;976.53;911.20;;;;;;;26.11;48.95;98715.31;5054064;28;20032;-89
2021/06/18 06:54:11;;;;;;;966.30;901.47;;;;;;;26.22;47.63;98714.50;5052432;28;20046;-88
2021/06/18 06:56:37;;;;;;;979.17;913.83;;;;;;;26.18;48.58;98713.06;5052388;28;20028;-89
2021/06/18 06:59:02;;;;;;;978.80;913.43;;;;;;;26.30;47.56;98706.81;5037027;28;20094;-90
2021/06/18 07:01:29;;;;;;;986.50;920.57;;;;;;;26.34;48.77;98705.59;5053027;28;20041;-89
2021/06/18 07:03:54;;;;;;;989.30;922.63;;;;;;;26.52;47.72;98700.63;5053241;28;20373;-89
2021/06/18 07:06:20;;;;;;;985.10;919.23;;;;;;;26.48;47.58;98705.28;5038490;28;20028;-88
2021/06/18 07:08:45;;;;;;;989.17;923.30;;;;;;;26.73;47.41;98704.09;5041290;28;20044;-88
2021/06/18 07:11:11;;;;;;;987.33;921.80;;;;;;;26.95;47.47;98708.41;5053794;28;20024;-89
2021/06/18 07:13:36;;;;;;;1003.23;936.37;;;;;;;27.02;45.57;98705.13;5039952;28;20029;-88
2021/06/18 07:16:02;;;;;;;1012.40;945.53;;;;;;;27.11;46.32;98699.09;5039253;28;20044;-87
2021/06/18 07:18:27;;;;;;;1021.03;953.53;;;;;;;27.26;46.33;98695.13;5041842;28;20056;-88
2021/06/18 07:20:53;;;;;;;1030.57;962.80;;;;;;;27.27;44.62;98694.16;5039987;28;20079;-88
2021/06/18 07:23:19;;;;;;;1028.83;961.10;;;;;;;27.44;44.98;98690.06;5053400;28;20282;-87
2021/06/18 07:25:44;;;;;;;1033.10;965.00;;;;;;;27.49;43.68;98694.97;5057370;28;20032;-89
2021/06/18 07:28:10;;;;;;;1036.27;968.33;;;;;;;27.56;44.03;98688.19;5040695;28;20370;-88
2021/06/18 07:30:37;;;;;;;1035.43;967.30;;;;;;;27.61;43.35;98673.66;5047254;28;20036;-88
2021/06/18 07:33:04;;;;;;;1026.67;959.07;;;;;;;27.76;43.11;98679.38;5055614;28;20194;-88
2021/06/18 07:35:30;;;;;;;1033.90;966.07;;;;;;;27.81;42.98;98677.16;5040332;28;20039;-89
2021/06/18 07:37:56;;;;;;;1040.32;972.13;;;;;;;27.90;43.64;98686.06;5039168;28;20119;-88
2021/06/18 07:40:22;;;;;;;1030.90;963.50;;;;;;;27.99;43.37;98680.81;5039855;28;20060;-88
2021/06/18 07:42:49;;;;;;;1035.93;968.43;;;;;;;27.98;43.25;98676.50;5055477;28;20036;-88
2021/06/18 07:45:15;;;;;;;1030.27;963.17;;;;;;;28.10;43.64;98678.06;5055312;28;20025;-88
2021/06/18 07:47:41;;;;;;;1041.13;973.25;;;;;;;28.16;42.87;98674.03;5038615;28;20132;-88
2021/06/18 07:50:09;;;;;;;1041.68;974.05;;;;;;;28.23;42.37;98671.66;5052910;28;20115;-89
2021/06/18 07:52:35;;;;;;;1040.17;972.20;;;;;;;27.99;43.08;98670.25;5053115;28;20143;-88
2021/06/18 07:55:01;;;;;;;1042.80;974.67;;;;;;;28.25;43.03;98669.75;5039633;28;20448;-88
2021/06/18 07:57:27;;;;;;;1045.83;978.20;;;;;;;28.37;42.69;98661.53;5039084;28;20075;-89
2021/06/18 07:59:52;;;;;;;1041.37;973.50;;;;;;;28.47;42.22;98662.38;5037817;28;20053;-90
2021/06/18 08:02:19;;;;;;;1043.93;976.13;;;;;;;28.33;42.10;98656.69;5040474;28;20088;-88
2021/06/18 08:04:44;;;;;;;1033.83;966.60;;;;;;;28.28;41.40;98651.00;5038164;28;20017;-90
2021/06/18 08:07:10;;;;;;;1028.57;961.93;;;;;;;28.44;41.94;98645.97;5041854;28;20046;-89
2021/06/18 08:09:35;;;;;;;1037.83;970.23;;;;;;;28.61;41.85;98650.53;5055514;28;20047;-89
2021/06/18 08:12:01;;;;;;;1043.67;976.37;;;;;;;28.75;41.20;98646.66;5053144;28;20104;-89
2021/06/18 08:14:28;;;;;;;1046.80;979.17;;;;;;;28.98;40.77;98654.06;5055593;28;20029;-89
2021/06/18 08:16:53;;;;;;;1090.57;999.90;;;;;;;28.92;41.18;98651.19;5072683;28;20036;-88
2021/06/18 08:19:19;;;;;;;1081.93;999.90;;;;;;;28.96;39.95;98655.19;5069840;28;20036;-89
2021/06/18 08:21:44;;;;;;;1093.57;999.90;;;;;;;28.99;39.75;98652.25;5054520;28;20041;-89
2021/06/18 08:24:10;;;;;;;1084.27;999.90;;;;;;;28.89;41.13;98648.84;5060393;28;20052;-89
2021/06/18 08:26:35;;;;;;;1094.73;999.90;;;;;;;29.11;39.81;98652.94;5040292;28;20021;-89
2021/06/18 08:29:01;;;;;;;1087.53;999.90;;;;;;;29.09;39.65;98654.88;5057238;28;20105;-90
2021/06/18 08:31:26;;;;;;;1081.83;999.90;;;;;;;29.02;39.20;98658.13;5061001;28;20029;-88
2021/06/18 08:33:51;;;;;;;1091.57;999.90;;;;;;;29.28;39.27;98639.75;5055599;28;20342;-89
2021/06/18 08:36:17;;;;;;;1089.00;999.90;;;;;;;29.36;39.00;98636.44;5058389;28;20028;-89
2021/06/18 08:38:43;;;;;;;1090.83;999.90;;;;;;;29.32;38.60;98638.53;5036241;28;20028;-89
2021/06/18 08:41:08;;;;;;;1092.00;999.90;;;;;;;29.51;38.46;98637.59;5055896;28;20374;-89
2021/06/18 08:43:34;;;;;;;1094.33;999.90;;;;;;;29.65;38.19;98631.81;5054413;28;20021;-89
2021/06/18 08:46:02;;;;;;;1103.27;999.90;;;;;;;29.58;36.15;98641.31;5052662;28;20301;-89
2021/06/18 08:48:29;;;;;;;1119.13;999.90;;;;;;;29.71;35.35;98633.00;5050326;28;20104;-89
2021/06/18 08:50:55;;;;;;;1122.97;999.90;;;;;;;30.02;34.63;98626.41;5059401;28;20033;-89
2021/06/18 08:53:23;;;;;;;1142.07;999.90;;;;;;;30.29;34.54;98630.78;5038576;28;20045;-89
2021/06/18 08:55:50;;;;;;;1117.00;999.90;;;;;;;30.38;34.14;98627.22;5050897;28;20090;-89
2021/06/18 08:58:15;;;;;;;1049.83;986.83;;;;;;;30.58;34.21;98620.78;5035303;28;20038;-88
2021/06/18 09:00:41;;;;;;;1106.57;999.90;;;;;;;30.56;34.30;98641.25;5039900;28;20024;-88
2021/06/18 09:03:34;;;;;;;1096.73;999.90;;;;;;;30.61;33.46;98635.50;5059179;28;20111;-88
2021/06/18 09:06:00;;;;;;;1106.67;999.90;;;;;;;30.71;32.88;98638.91;5063456;28;20121;-89
2021/06/18 09:08:26;;;;;;;1034.83;973.77;;;;;;;30.82;32.81;98635.97;5054737;28;20460;-88
2021/06/18 09:10:51;;;;;;;1021.87;961.13;;;;;;;30.75;33.85;98627.84;5043627;28;20033;-88
2021/06/18 09:13:31;;;;;;;1016.10;955.43;;;;;;;30.95;34.84;98641.69;5043485;28;20032;-88
2021/06/18 09:15:58;;;;;;;859.53;802.77;;;;;;;31.05;33.76;98633.66;5056594;28;20032;-89
2021/06/18 09:18:34;;;;;;;855.97;799.27;;;;;;;31.02;32.74;98641.94;5056719;28;20028;-89
2021/06/18 09:21:02;;;;;;;877.30;819.87;;;;;;;31.23;32.36;98629.13;5058557;28;20295;-89
2021/06/18 09:23:34;;;;;;;889.07;831.57;;;;;;;31.21;32.62;98634.56;5056512;28;20037;-88
2021/06/18 09:26:23;;;;;;;897.73;839.67;;;;;;;31.49;32.51;98637.81;5051702;28;20657;-89
2021/06/18 09:29:04;;;;;;;1040.60;979.57;;;;;;;31.65;31.46;98629.13;5053436;28;20068;-89
2021/06/18 09:31:34;;;;;;;1062.07;996.93;;;;;;;31.81;30.76;98623.84;5037637;28;20031;-90
2021/06/18 09:34:02;;;;;;;1054.57;992.67;;;;;;;31.68;30.98;98626.97;5054490;28;20033;-88
2021/06/18 09:36:27;;;;;;;1084.67;999.90;;;;;;;31.32;31.44;98622.81;5039189;28;20081;-88
2021/06/18 09:38:59;;;;;;;1097.63;999.90;;;;;;;31.16;31.70;98631.56;5052433;28;20021;-88
2021/06/18 09:41:27;;;;;;;1088.93;999.90;;;;;;;31.36;32.38;98626.03;5039312;28;20051;-89
2021/06/18 09:43:56;;;;;;;1103.47;999.90;;;;;;;31.65;31.24;98632.59;5040377;28;20048;-89
2021/06/18 09:46:42;;;;;;;1086.23;999.90;;;;;;;31.71;31.46;98621.31;5039266;28;20140;-89
2021/06/18 09:49:12;;;;;;;1086.73;999.90;;;;;;;31.83;30.93;98621.84;5039656;28;20021;-89
2021/06/18 09:51:57;;;;;;;1095.03;999.90;;;;;;;32.08;31.51;98622.72;5053807;28;20039;-89
2021/06/18 09:54:31;;;;;;;1090.37;999.90;;;;;;;32.06;30.26;98619.38;5051633;28;20481;-89
2021/06/18 09:57:34;;;;;;;1026.03;965.38;;;;;;;32.05;29.90;98621.19;5036591;28;20025;-89
2021/06/18 10:00:07;;;;;;;1050.37;988.43;;;;;;;31.85;29.63;98621.69;5041904;28;20389;-89
2021/06/18 10:02:38;;;;;;;941.07;881.60;;;;;;;31.78;30.45;98620.69;5051506;28;20285;-89
2021/06/18 10:05:06;;;;;;;985.13;925.50;;;;;;;31.74;30.05;98628.16;5055121;28;20719;-90
2021/06/18 10:07:34;;;;;;;913.90;855.00;;;;;;;31.61;29.80;98623.31;5042816;28;20029;-89
2021/06/18 10:10:06;;;;;;;900.83;842.53;;;;;;;31.70;30.52;98616.16;5050995;28;20074;-90
2021/06/18 10:12:32;;;;;;;921.93;862.90;;;;;;;31.88;29.62;98619.53;5037222;28;20033;-89
2021/06/18 10:15:05;;;;;;;913.70;855.27;;;;;;;32.11;29.82;98611.78;5039755;28;20025;-89
2021/06/18 10:17:30;;;;;;;923.80;865.17;;;;;;;32.26;29.19;98610.13;5054598;28;20039;-89
2021/06/18 10:19:55;;;;;;;927.83;869.23;;;;;;;32.24;29.61;98606.00;5053994;28;20028;-89
2021/06/18 10:22:22;;;;;;;914.87;856.37;;;;;;;32.18;29.27;98610.13;5039417;28;20037;-89
2021/06/18 10:25:03;;;;;;;926.33;867.50;;;;;;;32.16;29.64;98590.91;5061217;28;20029;-90
2021/06/18 10:27:44;;;;;;;917.00;858.33;;;;;;;32.26;29.90;98604.81;5040741;28;20110;-89
2021/06/18 10:30:26;;;;;;;924.33;865.33;;;;;;;32.53;28.89;98611.59;5050491;28;20044;-89
2021/06/18 10:32:53;;;;;;;975.43;912.73;;;;;;;32.45;29.13;98608.97;5053250;28;20026;-88
2021/06/18 10:35:43;;;;;;;1166.80;999.90;;;;;;;32.43;30.44;98613.59;5053861;28;20021;-89
2021/06/18 10:38:30;;;;;;;1181.47;999.90;;;;;;;32.65;28.70;98604.13;5053716;28;20029;-90
2021/06/18 10:40:59;;;;;;;1146.93;999.90;;;;;;;32.81;28.58;98598.78;5059192;28;20035;-89
2021/06/18 10:43:47;;;;;;;1125.10;999.90;;;;;;;32.51;28.82;98603.78;5061772;28;20039;-89
2021/06/18 10:46:28;;;;;;;1085.60;999.90;;;;;;;32.77;27.88;98602.78;5051754;28;20083;-89
2021/06/18 10:48:56;;;;;;;947.33;888.03;;;;;;;32.81;28.36;98606.75;5056091;28;20044;-89
2021/06/18 10:51:32;;;;;;;938.50;877.70;;;;;;;32.78;28.11;98604.44;5040994;28;20025;-89
2021/06/18 10:54:04;;;;;;;931.93;871.73;;;;;;;33.05;28.34;98612.00;5043047;28;20033;-87
2021/06/18 10:56:45;;;;;;;945.63;886.10;;;;;;;32.85;28.63;98606.22;5027431;28;20433;-89
2021/06/18 10:59:31;;;;;;;954.27;894.40;;;;;;;33.04;28.69;98592.56;5055550;28;20025;-89
2021/06/18 11:01:58;;;;;;;942.40;882.87;;;;;;;32.80;28.05;98597.97;5058135;28;20033;-89
2021/06/18 11:04:44;;;;;;;948.50;888.87;;;;;;;32.69;28.44;98600.97;5056427;28;20328;-89
2021/06/18 11:07:27;;;;;;;954.50;894.50;;;;;;;32.61;28.23;98595.66;5040555;28;20032;-89
2021/06/18 11:09:58;;;;;;;935.17;875.83;;;;;;;32.45;29.18;98585.91;5039729;28;20108;-90